createdAt,value
2019-04-03T00:01:39.416Z,2.23
2019-04-03T00:04:09.667Z,2.43
2019-04-03T00:06:39.921Z,2.93
2019-04-03T00:09:10.302Z,2.33
2019-04-03T00:11:41.954Z,1.90
2019-04-03T00:14:13.017Z,2.07
2019-04-03T00:16:45.132Z,2.77
2019-04-03T00:19:17.333Z,3.23
2019-04-03T00:21:47.213Z,2.00
2019-04-03T00:24:17.518Z,2.87
2019-04-03T00:26:47.865Z,2.43
2019-04-03T00:29:18.121Z,2.07
2019-04-03T00:31:49.920Z,2.23
2019-04-03T00:34:22.991Z,2.30
2019-04-03T00:36:53.191Z,2.30
2019-04-03T00:39:24.863Z,2.80
2019-04-03T00:41:55.492Z,2.97
2019-04-03T00:44:26.089Z,2.13
2019-04-03T00:46:56.292Z,2.40
2019-04-03T00:49:26.572Z,2.13
2019-04-03T00:51:57.462Z,2.33
2019-04-03T00:54:30.688Z,2.40
2019-04-03T00:57:01.382Z,2.40
2019-04-03T00:59:31.855Z,2.47
2019-04-03T01:02:02.191Z,3.00
2019-04-03T01:04:32.399Z,2.97
2019-04-03T01:07:02.678Z,2.77
2019-04-03T01:09:33.012Z,2.50
2019-04-03T01:12:03.507Z,2.70
2019-04-03T01:14:33.847Z,2.77
2019-04-03T01:17:04.697Z,2.57
2019-04-03T01:19:36.725Z,3.43
2019-04-03T01:22:08.090Z,3.50
2019-04-03T01:24:39.065Z,3.40
2019-04-03T01:27:11.543Z,4.80
2019-04-03T01:29:42.895Z,3.20
2019-04-03T01:32:15.977Z,3.53
2019-04-03T01:34:47.735Z,3.87
2019-04-03T01:37:19.292Z,3.40
2019-04-03T01:39:50.844Z,4.00
2019-04-03T01:42:22.516Z,3.70
2019-04-03T01:44:55.034Z,3.60
2019-04-03T01:47:27.338Z,4.05
2019-04-03T01:49:59.165Z,4.07
2019-04-03T01:52:31.878Z,3.40
2019-04-03T01:55:04.264Z,3.40
2019-04-03T01:57:36.228Z,3.37
2019-04-03T02:00:07.713Z,3.17
2019-04-03T02:02:39.265Z,3.73
2019-04-03T02:05:12.130Z,3.00
2019-04-03T02:07:44.214Z,3.43
2019-04-03T02:10:18.948Z,3.27
2019-04-03T02:12:51.298Z,3.80
2019-04-03T02:15:22.336Z,7.33
2019-04-03T02:19:37.031Z,4.80
2019-04-03T02:22:07.375Z,4.80
2019-04-03T02:24:37.803Z,4.67
2019-04-03T02:27:08.064Z,4.80
2019-04-03T02:29:39.740Z,4.60
2019-04-03T02:32:10.161Z,4.63
2019-04-03T02:34:40.722Z,5.20
2019-04-03T02:37:12.183Z,4.67
2019-04-03T02:39:42.528Z,4.60
2019-04-03T02:42:12.758Z,4.20
2019-04-03T02:44:43.775Z,4.77
2019-04-03T02:47:14.150Z,4.47
2019-04-03T02:49:44.910Z,4.53
2019-04-03T02:52:15.729Z,5.07
2019-04-03T02:54:47.305Z,4.83
2019-04-03T02:57:18.433Z,3.93
2019-04-03T02:59:48.720Z,4.50
2019-04-03T03:02:19.242Z,4.53
2019-04-03T03:04:49.458Z,5.40
2019-04-03T03:07:20.048Z,4.20
2019-04-03T03:09:51.559Z,4.00
2019-04-03T03:12:22.021Z,4.20
2019-04-03T03:14:52.795Z,4.73
2019-04-03T03:17:24.249Z,4.40
2019-04-03T03:19:56.173Z,4.63
2019-04-03T03:22:28.077Z,4.17
2019-04-03T03:25:00.967Z,4.07
2019-04-03T03:27:31.194Z,4.50
2019-04-03T03:30:02.571Z,4.30
2019-04-03T03:32:35.799Z,6.70
2019-04-03T03:35:13.832Z,4.00
2019-04-03T03:37:39.091Z,4.20
2019-04-03T03:40:09.800Z,4.73
2019-04-03T03:42:40.756Z,4.63
2019-04-03T03:45:11.239Z,4.43
2019-04-03T03:47:42.529Z,6.27
2019-04-03T03:50:14.478Z,3.87
2019-04-03T03:52:50.641Z,3.70
2019-04-03T03:55:28.643Z,4.20
2019-04-03T03:58:01.860Z,3.70
2019-04-03T04:00:39.788Z,3.47
2019-04-03T04:03:11.624Z,4.10
2019-04-03T04:05:56.133Z,5.10
2019-04-03T04:08:34.462Z,3.97
2019-04-03T04:11:04.842Z,3.63
2019-04-03T04:13:36.182Z,3.43
2019-04-03T04:16:11.754Z,3.47
2019-04-03T04:18:46.519Z,4.37
2019-04-03T04:21:16.803Z,4.17
2019-04-03T04:23:47.097Z,3.83
2019-04-03T04:26:17.733Z,3.80
2019-04-03T04:28:49.258Z,4.05
2019-04-03T04:31:21.745Z,3.90
2019-04-03T04:33:52.241Z,4.60
2019-04-03T04:36:28.968Z,3.87
2019-04-03T04:38:59.518Z,3.87
2019-04-03T04:41:33.755Z,4.17
2019-04-03T04:44:06.042Z,5.00
2019-04-03T04:46:45.074Z,3.50
2019-04-03T04:49:20.837Z,4.20
2019-04-03T04:51:56.523Z,3.13
2019-04-03T04:54:32.140Z,6.60
2019-04-03T04:57:03.675Z,3.33
2019-04-03T04:59:40.436Z,4.70
2019-04-03T05:02:11.019Z,4.30
2019-04-03T05:04:47.279Z,3.70
2019-04-03T05:07:17.484Z,4.30
2019-04-03T05:09:50.444Z,4.77
2019-04-03T05:12:26.434Z,3.77
2019-04-03T05:14:56.641Z,4.73
2019-04-03T05:17:35.337Z,3.87
2019-04-03T05:20:14.830Z,3.60
2019-04-03T05:22:45.033Z,5.10
2019-04-03T05:25:20.220Z,4.20
2019-04-03T05:27:54.711Z,3.70
2019-04-03T05:30:38.755Z,4.30
2019-04-03T05:33:16.095Z,3.80
2019-04-03T05:35:46.670Z,4.37
2019-04-03T05:38:22.475Z,4.07
2019-04-03T05:40:59.372Z,4.73
2019-04-03T05:43:31.529Z,3.70
2019-04-03T05:46:05.146Z,4.73
2019-04-03T05:48:35.305Z,4.60
2019-04-03T05:51:05.858Z,4.17
2019-04-03T05:53:37.457Z,4.37
2019-04-03T05:56:08.010Z,4.93
2019-04-03T05:58:39.702Z,3.65
2019-04-03T06:01:11.449Z,5.07
2019-04-03T06:03:44.817Z,4.17
2019-04-03T06:06:15.030Z,4.17
2019-04-03T06:08:50.639Z,3.87
2019-04-03T06:11:22.191Z,4.37
2019-04-03T06:13:52.795Z,6.17
2019-04-03T06:16:26.600Z,5.20
2019-04-03T06:19:02.136Z,4.10
2019-04-03T06:21:40.251Z,5.40
2019-04-03T06:24:18.045Z,4.13
2019-04-03T06:26:54.962Z,6.03
2019-04-03T06:29:30.365Z,4.47
2019-04-03T06:32:08.540Z,5.83
2019-04-03T06:34:42.408Z,5.57
2019-04-03T06:37:21.249Z,4.53
2019-04-03T06:39:53.818Z,4.80
2019-04-03T06:42:24.849Z,3.80
2019-04-03T06:44:55.167Z,4.27
2019-04-03T06:47:25.523Z,3.63
2019-04-03T06:49:56.845Z,3.73
2019-04-03T06:52:27.143Z,4.58
2019-04-03T06:54:58.530Z,3.77
2019-04-03T06:57:28.851Z,4.87
2019-04-03T06:59:59.616Z,3.52
2019-04-03T07:02:32.022Z,3.80
2019-04-03T07:05:03.048Z,4.07
2019-04-03T07:07:35.250Z,3.70
2019-04-03T07:10:09.144Z,3.57
2019-04-03T07:12:40.781Z,4.47
2019-04-03T07:15:11.127Z,4.00
2019-04-03T07:17:41.669Z,3.00
2019-04-03T07:20:15.333Z,2.83
2019-04-03T07:22:44.092Z,2.53
2019-04-03T07:25:14.772Z,3.73
2019-04-03T07:27:45.255Z,3.03
2019-04-03T07:30:17.702Z,2.73
2019-04-03T07:32:48.430Z,3.00
2019-04-03T07:35:19.422Z,3.23
2019-04-03T07:37:51.065Z,2.67
2019-04-03T07:40:22.606Z,3.50
2019-04-03T07:42:55.367Z,3.00
2019-04-03T07:45:25.170Z,3.17
2019-04-03T07:47:55.663Z,2.57
2019-04-03T07:50:26.304Z,2.50
2019-04-03T07:52:57.537Z,2.30
2019-04-03T07:55:28.824Z,2.13
2019-04-03T07:57:59.901Z,2.00
2019-04-03T08:00:31.813Z,2.67
2019-04-03T08:03:02.587Z,2.80
2019-04-03T08:05:33.209Z,3.20
2019-04-03T08:08:03.529Z,2.23
2019-04-03T08:10:34.302Z,1.87
2019-04-03T08:13:06.709Z,2.60
2019-04-03T08:15:38.155Z,2.30
2019-04-03T08:18:08.397Z,4.23
2019-04-03T08:20:38.579Z,4.67
2019-04-03T08:23:08.850Z,4.60
2019-04-03T08:25:41.926Z,5.20
2019-04-03T08:28:11.100Z,6.00
2019-04-03T08:30:41.288Z,5.00
2019-04-03T08:33:17.309Z,4.80
2019-04-03T08:35:43.816Z,4.53
2019-04-03T08:38:14.513Z,4.33
2019-04-03T08:40:44.840Z,4.23
2019-04-03T08:43:15.200Z,3.70
2019-04-03T08:45:45.623Z,1.70
2019-04-03T08:48:17.483Z,1.00
2019-04-03T08:50:47.892Z,0.70
2019-04-03T08:53:18.254Z,0.80
2019-04-03T08:55:48.976Z,0.93
2019-04-03T08:58:21.002Z,0.50
2019-04-03T09:00:51.850Z,0.45
2019-04-03T09:03:26.248Z,0.50
2019-04-03T09:05:57.003Z,0.50
2019-04-03T09:08:29.155Z,0.40
2019-04-03T09:11:00.319Z,0.43
2019-04-03T09:13:30.690Z,0.50
2019-04-03T09:16:01.242Z,1.40
2019-04-03T09:18:31.877Z,0.50
2019-04-03T09:21:02.840Z,0.50
2019-04-03T09:23:33.160Z,0.70
2019-04-03T09:26:03.831Z,0.63
2019-04-03T09:28:34.505Z,0.50
2019-04-03T09:31:05.144Z,0.60
2019-04-03T09:33:35.539Z,0.50
2019-04-03T09:36:05.843Z,0.50
2019-04-03T09:38:36.514Z,0.70
2019-04-03T09:41:06.924Z,0.53
2019-04-03T09:43:39.496Z,0.40
2019-04-03T09:46:09.096Z,0.40
2019-04-03T09:48:39.405Z,0.67
2019-04-03T09:51:09.857Z,0.73
2019-04-03T09:53:40.318Z,0.60
2019-04-03T09:56:10.985Z,0.40
2019-04-03T09:58:41.433Z,0.53
2019-04-03T10:01:13.277Z,0.80
2019-04-03T10:03:43.976Z,0.60
2019-04-03T10:06:14.583Z,0.60
2019-04-03T10:08:45.089Z,0.60
2019-04-03T10:11:15.863Z,0.50
2019-04-03T10:13:47.633Z,2.37
2019-04-03T10:16:17.923Z,0.50
2019-04-03T10:18:49.230Z,0.50
2019-04-03T10:21:20.812Z,0.60
2019-04-03T10:23:51.606Z,0.73
2019-04-03T10:26:21.834Z,0.60
2019-04-03T10:28:52.155Z,0.70
2019-04-03T10:31:24.305Z,1.27
2019-04-03T10:33:55.164Z,0.93
2019-04-03T10:36:25.589Z,0.50
2019-04-03T10:38:56.299Z,0.50
2019-04-03T10:41:29.222Z,0.70
2019-04-03T10:43:59.819Z,0.60
2019-04-03T10:46:30.790Z,0.50
2019-04-03T10:49:01.361Z,0.40
2019-04-03T10:51:31.877Z,0.40
2019-04-03T10:54:02.255Z,0.67
2019-04-03T10:56:34.119Z,0.60
2019-04-03T10:59:12.115Z,0.50
2019-04-03T11:01:37.314Z,0.70
2019-04-03T11:04:07.705Z,0.60
2019-04-03T11:06:38.075Z,0.40
2019-04-03T11:09:13.897Z,0.60
2019-04-03T11:11:44.213Z,0.50
2019-04-03T11:14:14.548Z,0.60
2019-04-03T11:16:46.480Z,0.60
2019-04-03T11:19:19.673Z,0.77
2019-04-03T11:21:49.249Z,0.50
2019-04-03T11:24:19.626Z,0.70
2019-04-03T11:26:51.786Z,0.60
2019-04-03T11:29:22.250Z,0.50
2019-04-03T11:31:53.372Z,0.73
2019-04-03T11:34:23.679Z,0.47
2019-04-03T11:36:54.083Z,0.47
2019-04-03T11:39:25.305Z,0.50
2019-04-03T11:41:56.356Z,0.50
2019-04-03T11:44:26.740Z,0.77
2019-04-03T11:46:57.028Z,0.50
2019-04-03T11:49:27.333Z,0.63
2019-04-03T11:51:58.981Z,0.57
2019-04-03T11:54:29.832Z,0.40
2019-04-03T11:57:00.285Z,0.50
2019-04-03T11:59:30.526Z,0.60
2019-04-03T12:02:01.614Z,0.70
2019-04-03T12:04:32.405Z,0.97
2019-04-03T12:07:03.035Z,0.90
2019-04-03T12:09:33.210Z,0.60
2019-04-03T12:12:05.548Z,1.03
2019-04-03T12:14:36.145Z,0.60
2019-04-03T12:17:06.771Z,0.47
2019-04-03T12:19:38.908Z,0.40
2019-04-03T12:22:09.853Z,0.47
2019-04-03T12:24:40.061Z,0.70
2019-04-03T12:27:10.275Z,0.60
2019-04-03T12:29:40.689Z,1.53
2019-04-03T12:32:11.468Z,0.50
2019-04-03T12:34:41.686Z,0.63
2019-04-03T12:37:11.907Z,1.37
2019-04-03T12:39:42.937Z,1.60
2019-04-03T12:42:16.761Z,1.03
2019-04-03T12:44:46.721Z,0.93
2019-04-03T12:47:17.634Z,0.80
2019-04-03T12:49:48.160Z,0.73
2019-04-03T12:52:18.997Z,0.60
2019-04-03T12:54:51.284Z,0.70
2019-04-03T12:57:21.479Z,0.60
2019-04-03T12:59:51.743Z,0.47
2019-04-03T13:02:22.820Z,0.60
2019-04-03T13:04:53.025Z,0.50
2019-04-03T13:07:23.279Z,0.40
2019-04-03T13:09:53.546Z,0.40
2019-04-03T13:12:27.261Z,0.40
2019-04-03T13:14:57.687Z,0.60
2019-04-03T13:17:27.997Z,0.40
2019-04-03T13:20:03.225Z,0.47
2019-04-03T13:22:30.254Z,0.67
2019-04-03T13:25:00.799Z,0.50
2019-04-03T13:27:32.758Z,0.60
2019-04-03T13:30:03.571Z,0.40
2019-04-03T13:32:33.811Z,0.50
2019-04-03T13:35:05.464Z,0.40
2019-04-03T13:37:37.715Z,0.50
2019-04-03T13:40:08.311Z,0.40
2019-04-03T13:42:38.950Z,0.73
2019-04-03T13:45:10.398Z,0.40
2019-04-03T13:47:42.816Z,0.70
2019-04-03T13:50:12.974Z,0.40
2019-04-03T13:52:48.505Z,0.97
2019-04-03T13:55:15.631Z,0.73
2019-04-03T13:57:46.949Z,0.80
2019-04-03T14:00:21.908Z,1.60
2019-04-03T14:02:49.880Z,0.70
2019-04-03T14:05:20.150Z,0.97
2019-04-03T14:07:50.423Z,1.37
2019-04-03T14:10:20.898Z,0.47
2019-04-03T14:12:51.181Z,0.40
2019-04-03T14:15:22.001Z,1.10
2019-04-03T14:17:57.702Z,0.50
2019-04-03T14:20:26.529Z,0.50
2019-04-03T14:22:56.788Z,0.60
2019-04-03T14:25:31.418Z,0.90
2019-04-03T14:28:01.703Z,1.73
2019-04-03T14:30:31.261Z,1.43
2019-04-03T14:33:01.915Z,0.57
2019-04-03T14:35:48.830Z,2.93
2019-04-03T14:38:04.293Z,4.20
2019-04-03T14:40:36.041Z,1.98
2019-04-03T14:43:06.636Z,0.80
2019-04-03T14:45:38.786Z,0.70
2019-04-03T14:48:08.804Z,1.57
2019-04-03T14:50:39.149Z,0.60
2019-04-03T14:53:09.420Z,0.80
2019-04-03T14:55:47.048Z,0.70
2019-04-03T14:58:12.111Z,0.80
2019-04-03T15:00:42.472Z,0.67
2019-04-03T15:03:12.686Z,0.63
2019-04-03T15:05:44.936Z,0.50
2019-04-03T15:08:15.017Z,0.47
2019-04-03T15:10:45.570Z,0.67
2019-04-03T15:13:15.774Z,0.60
2019-04-03T15:15:46.043Z,0.77
2019-04-03T15:18:16.463Z,20.80
2019-04-03T15:20:49.026Z,2.93
2019-04-03T15:23:18.742Z,1.87
2019-04-03T15:25:52.311Z,1.70
2019-04-03T15:28:21.336Z,2.00
2019-04-03T15:30:51.572Z,1.00
2019-04-03T15:33:24.319Z,0.70
2019-04-03T15:35:54.173Z,0.80
2019-04-03T15:38:24.728Z,0.80
2019-04-03T15:40:57.105Z,0.80
2019-04-03T15:43:26.952Z,0.97
2019-04-03T15:45:58.099Z,0.40
2019-04-03T15:48:29.041Z,0.60
2019-04-03T15:50:59.303Z,0.60
2019-04-03T15:53:29.577Z,0.80
2019-04-03T15:55:59.868Z,0.70
2019-04-03T15:58:30.806Z,0.83
2019-04-03T16:01:01.057Z,0.70
2019-04-03T16:03:31.655Z,1.13
2019-04-03T16:06:03.953Z,0.93
2019-04-03T16:08:34.202Z,1.80
2019-04-03T16:11:04.898Z,1.63
2019-04-03T16:13:35.128Z,0.90
2019-04-03T16:16:05.516Z,1.27
2019-04-03T16:18:38.537Z,1.40
2019-04-03T16:21:08.764Z,2.13
2019-04-03T16:23:38.999Z,1.40
2019-04-03T16:26:09.281Z,2.07
2019-04-03T16:28:39.877Z,1.90
2019-04-03T16:31:10.411Z,3.23
2019-04-03T16:33:41.457Z,1.93
2019-04-03T16:36:14.136Z,1.03
2019-04-03T16:38:45.067Z,1.00
2019-04-03T16:41:15.796Z,1.10
2019-04-03T16:43:46.007Z,1.07
2019-04-03T16:46:16.284Z,1.27
2019-04-03T16:48:47.384Z,1.23
2019-04-03T16:51:18.734Z,2.10
2019-04-03T16:53:49.453Z,1.50
2019-04-03T16:56:19.826Z,2.20
2019-04-03T16:58:50.108Z,1.33
2019-04-03T17:01:20.401Z,1.60
2019-04-03T17:03:51.488Z,1.50
2019-04-03T17:06:22.226Z,1.60
2019-04-03T17:08:52.544Z,2.43
2019-04-03T17:11:23.082Z,1.63
2019-04-03T17:13:53.299Z,2.23
2019-04-03T17:16:25.016Z,2.03
2019-04-03T17:18:55.545Z,5.47
2019-04-03T17:21:28.328Z,2.63
2019-04-03T17:23:58.095Z,2.33
2019-04-03T17:26:29.650Z,2.50
2019-04-03T17:29:04.831Z,3.07
2019-04-03T17:31:32.091Z,3.53
2019-04-03T17:34:02.477Z,4.10
2019-04-03T17:36:33.254Z,5.73
2019-04-03T17:39:06.183Z,4.30
2019-04-03T17:41:38.039Z,3.57
2019-04-03T17:44:10.232Z,4.23
2019-04-03T17:46:41.182Z,3.40
2019-04-03T17:49:12.179Z,2.83
2019-04-03T17:51:43.880Z,2.67
2019-04-03T17:54:14.121Z,3.00
2019-04-03T17:56:45.141Z,2.93
2019-04-03T17:59:18.113Z,3.30
2019-04-03T18:01:48.473Z,2.23
2019-04-03T18:04:20.249Z,2.57
2019-04-03T18:06:50.697Z,2.90
2019-04-03T18:09:21.020Z,2.87
2019-04-03T18:11:51.390Z,3.10
2019-04-03T18:14:21.598Z,3.20
2019-04-03T18:16:52.563Z,3.10
2019-04-03T18:19:22.861Z,3.50
2019-04-03T18:21:53.941Z,3.80
2019-04-03T18:24:24.513Z,3.53
2019-04-03T18:26:55.191Z,3.73
2019-04-03T18:29:27.653Z,3.67
2019-04-03T18:31:58.042Z,3.80
2019-04-03T18:34:29.585Z,4.00
2019-04-03T18:37:08.459Z,4.27
2019-04-03T18:39:40.256Z,4.67
2019-04-03T18:42:11.077Z,5.67
2019-04-03T18:44:41.679Z,5.27
2019-04-03T18:47:22.001Z,14.77
2019-04-03T18:49:55.806Z,6.47
2019-04-03T18:52:26.470Z,5.53
2019-04-03T18:54:56.658Z,6.23
2019-04-03T18:57:26.876Z,4.37
2019-04-03T19:00:03.307Z,3.83
2019-04-03T19:02:40.921Z,4.30
2019-04-03T19:05:14.261Z,3.77
2019-04-03T19:07:46.903Z,3.80
2019-04-03T19:10:18.506Z,3.40
2019-04-03T19:12:49.057Z,5.03
2019-04-03T19:15:19.554Z,10.57
2019-04-03T19:17:59.535Z,9.23
2019-04-03T19:20:22.137Z,18.73
2019-04-03T19:23:02.491Z,7.03
2019-04-03T19:25:25.303Z,5.50
2019-04-03T19:27:56.121Z,4.47
2019-04-03T19:30:28.610Z,5.00
2019-04-03T19:32:58.862Z,5.40
2019-04-03T19:35:30.875Z,7.03
2019-04-03T19:38:04.620Z,5.30
2019-04-03T19:40:33.581Z,5.53
2019-04-03T19:43:03.958Z,5.57
2019-04-03T19:45:35.094Z,6.57
2019-04-03T19:48:05.699Z,6.67
2019-04-03T19:50:36.323Z,7.93
2019-04-03T19:53:08.074Z,6.80
2019-04-03T19:55:38.627Z,7.27
2019-04-03T19:58:08.968Z,7.40
2019-04-03T20:00:39.985Z,8.87
2019-04-03T20:03:13.830Z,9.00
2019-04-03T20:05:44.503Z,10.03
2019-04-03T20:08:18.085Z,8.87
2019-04-03T20:10:49.197Z,9.63
2019-04-03T20:13:19.706Z,10.13
2019-04-03T20:15:53.710Z,8.90
2019-04-03T20:18:22.279Z,8.83
2019-04-03T20:20:54.171Z,12.40
2019-04-03T20:23:24.539Z,9.53
2019-04-03T20:25:55.152Z,8.57
2019-04-03T20:28:26.318Z,8.00
2019-04-03T20:30:56.933Z,8.27
2019-04-03T20:33:28.526Z,9.87
2019-04-03T20:35:59.153Z,9.20
2019-04-03T20:38:29.836Z,9.07
2019-04-03T20:41:02.737Z,11.13
2019-04-03T20:43:32.933Z,8.70
2019-04-03T20:46:03.533Z,9.27
2019-04-03T20:48:34.674Z,9.30
2019-04-03T20:51:04.866Z,9.77
2019-04-03T20:53:35.404Z,10.37
2019-04-03T20:56:06.067Z,10.60
2019-04-03T20:58:39.941Z,11.40
2019-04-03T21:01:08.482Z,8.50
2019-04-03T21:03:38.865Z,8.70
2019-04-03T21:06:09.393Z,8.87
2019-04-03T21:08:39.627Z,7.83
2019-04-03T21:11:09.868Z,6.30
2019-04-03T21:13:40.582Z,5.10
2019-04-03T21:16:11.203Z,4.00
2019-04-03T21:18:41.656Z,5.27
2019-04-03T21:21:11.908Z,4.47
2019-04-03T21:23:42.294Z,5.97
2019-04-03T21:26:12.927Z,6.33
2019-04-03T21:28:44.875Z,6.20
2019-04-03T21:31:15.030Z,5.33
2019-04-03T21:33:45.731Z,4.23
2019-04-03T21:36:16.476Z,2.40
2019-04-03T21:38:47.437Z,2.30
2019-04-03T21:41:20.682Z,1.90
2019-04-03T21:43:51.864Z,1.83
2019-04-03T21:46:22.093Z,2.13
2019-04-03T21:48:52.947Z,1.63
2019-04-03T21:51:23.162Z,1.83
2019-04-03T21:53:55.964Z,1.50
2019-04-03T21:56:25.917Z,1.87
2019-04-03T21:58:56.970Z,1.80
2019-04-03T22:01:28.076Z,1.70
2019-04-03T22:03:58.370Z,2.07
2019-04-03T22:06:28.637Z,1.87
2019-04-03T22:09:00.663Z,2.70
2019-04-03T22:11:34.777Z,2.57
2019-04-03T22:14:05.704Z,2.50
2019-04-03T22:16:37.058Z,2.47
2019-04-03T22:19:07.276Z,2.67
2019-04-03T22:21:37.839Z,3.67
2019-04-03T22:24:08.086Z,3.50
2019-04-03T22:26:41.466Z,3.53
2019-04-03T22:29:12.028Z,3.70
2019-04-03T22:31:42.277Z,4.13
2019-04-03T22:34:12.720Z,3.87
2019-04-03T22:36:42.938Z,5.53
2019-04-03T22:39:13.720Z,4.30
2019-04-03T22:41:44.211Z,4.50
2019-04-03T22:44:16.857Z,5.90
2019-04-03T22:46:46.678Z,4.87
2019-04-03T22:49:16.883Z,5.27
2019-04-03T22:51:47.123Z,5.27
2019-04-03T22:54:17.420Z,5.20
2019-04-03T22:56:47.784Z,5.30
2019-04-03T22:59:18.593Z,5.73
2019-04-03T23:01:50.209Z,5.40
2019-04-03T23:04:20.589Z,5.47
2019-04-03T23:06:50.817Z,4.97
2019-04-03T23:09:21.227Z,4.87
2019-04-03T23:11:51.855Z,4.67
2019-04-03T23:14:23.410Z,4.83
2019-04-03T23:16:54.865Z,5.20
2019-04-03T23:19:25.729Z,5.30
2019-04-03T23:21:57.088Z,5.00
2019-04-03T23:24:29.009Z,5.00
2019-04-03T23:27:02.410Z,4.93
2019-04-03T23:29:31.272Z,5.53
2019-04-03T23:32:01.547Z,4.60
2019-04-03T23:34:31.837Z,5.70
2019-04-03T23:37:02.105Z,5.00
2019-04-03T23:39:32.391Z,5.20
2019-04-03T23:42:03.222Z,5.83
2019-04-03T23:44:33.416Z,4.90
2019-04-03T23:47:03.610Z,5.27
2019-04-03T23:49:33.871Z,5.50
2019-04-03T23:52:04.147Z,5.40
2019-04-03T23:54:34.570Z,5.43
2019-04-03T23:57:04.797Z,5.67
2019-04-03T23:59:47.263Z,5.07
